createdAt,value
2023-01-25T00:00:05.760Z,-0.50
2023-01-25T00:02:33.217Z,-0.50
2023-01-25T00:04:59.932Z,-0.40
2023-01-25T00:07:27.016Z,-0.50
2023-01-25T00:09:53.645Z,-0.50
2023-01-25T00:12:23.922Z,-0.40
2023-01-25T00:14:50.546Z,-0.50
2023-01-25T00:17:17.175Z,-0.50
2023-01-25T00:19:44.286Z,-0.50
2023-01-25T00:22:11.311Z,-0.40
2023-01-25T00:24:37.977Z,-0.40
2023-01-25T00:27:05.059Z,-0.50
2023-01-25T00:29:32.173Z,-0.50
2023-01-25T00:32:02.433Z,-0.40
2023-01-25T00:34:29.817Z,-0.40
2023-01-25T00:36:58.448Z,-0.40
2023-01-25T00:39:27.283Z,-0.30
2023-01-25T00:41:54.804Z,-0.40
2023-01-25T00:44:22.542Z,-0.40
2023-01-25T00:46:49.957Z,-0.30
2023-01-25T00:49:25.824Z,-0.30
2023-01-25T00:51:53.872Z,-0.30
2023-01-25T00:54:21.240Z,-0.30
2023-01-25T00:56:47.886Z,-0.30
2023-01-25T00:59:15.377Z,-0.30
2023-01-25T01:01:42.481Z,-0.40
2023-01-25T01:04:10.008Z,-0.40
2023-01-25T01:06:40.073Z,-0.40
2023-01-25T01:09:11.373Z,-0.40
2023-01-25T01:11:38.139Z,-0.40
2023-01-25T01:14:05.289Z,-0.50
2023-01-25T01:16:32.899Z,-0.60
2023-01-25T01:19:00.057Z,-0.60
2023-01-25T01:21:26.835Z,-0.70
2023-01-25T01:23:54.906Z,-0.70
2023-01-25T01:26:22.127Z,-0.70
2023-01-25T01:28:49.280Z,-0.70
2023-01-25T01:31:21.609Z,-0.70
2023-01-25T01:33:57.081Z,-0.70
2023-01-25T01:36:25.654Z,-0.60
2023-01-25T01:38:52.634Z,-0.60
2023-01-25T01:41:19.990Z,-0.60
2023-01-25T01:43:46.703Z,-0.60
2023-01-25T01:46:21.550Z,-0.60
2023-01-25T01:48:54.508Z,-0.60
2023-01-25T01:51:44.795Z,-0.60
2023-01-25T01:54:40.444Z,-0.60
2023-01-25T01:57:16.670Z,-0.70
2023-01-25T01:59:55.103Z,-0.70
2023-01-25T02:02:25.259Z,-0.70
2023-01-25T02:04:55.803Z,-0.60
2023-01-25T02:07:35.100Z,-0.60
2023-01-25T02:10:04.998Z,-0.60
2023-01-25T02:12:32.567Z,-0.50
2023-01-25T02:14:59.611Z,-0.50
2023-01-25T02:17:34.047Z,-0.50
2023-01-25T02:20:23.714Z,-0.60
2023-01-25T02:22:59.090Z,-0.70
2023-01-25T02:28:35.971Z,-0.80
2023-01-25T02:31:02.908Z,-0.80
2023-01-25T02:33:29.867Z,-0.80
2023-01-25T02:36:12.403Z,-0.80
2023-01-25T02:38:44.999Z,-0.80
2023-01-25T02:41:20.319Z,-0.70
2023-01-25T02:43:47.198Z,-0.70
2023-01-25T02:46:20.183Z,-0.70
2023-01-25T02:48:47.138Z,-0.70
2023-01-25T02:51:14.044Z,-0.70
2023-01-25T02:53:41.296Z,-0.70
2023-01-25T02:56:08.501Z,-0.70
2023-01-25T02:58:35.166Z,-0.60
2023-01-25T03:01:02.035Z,-0.60
2023-01-25T03:03:28.958Z,-0.60
2023-01-25T03:05:55.549Z,-0.60
2023-01-25T03:08:22.185Z,-0.60
2023-01-25T03:10:49.055Z,-0.50
2023-01-25T03:13:15.672Z,-0.50
2023-01-25T03:15:42.550Z,-0.60
2023-01-25T03:18:09.138Z,-0.60
2023-01-25T03:20:35.996Z,-0.60
2023-01-25T03:23:02.634Z,-0.70
2023-01-25T03:25:29.297Z,-0.70
2023-01-25T03:27:56.557Z,-0.70
2023-01-25T03:30:23.138Z,-0.70
2023-01-25T03:32:50.940Z,-0.70
2023-01-25T03:35:17.640Z,-0.70
2023-01-25T03:37:44.279Z,-0.70
2023-01-25T03:40:11.741Z,-0.70
2023-01-25T03:42:38.348Z,-0.80
2023-01-25T03:45:05.982Z,-0.80
2023-01-25T03:47:32.902Z,-0.80
2023-01-25T03:49:59.514Z,-0.80
2023-01-25T03:52:27.395Z,-0.70
2023-01-25T03:54:54.256Z,-0.70
2023-01-25T03:57:20.871Z,-0.70
2023-01-25T03:59:47.733Z,-0.70
2023-01-25T04:02:14.730Z,-0.70
2023-01-25T04:04:41.642Z,-0.70
2023-01-25T04:07:08.242Z,-0.70
2023-01-25T04:09:35.199Z,-0.80
2023-01-25T04:12:01.786Z,-0.70
2023-01-25T04:14:43.717Z,-0.70
2023-01-25T04:17:11.138Z,-0.70
2023-01-25T04:19:38.062Z,-0.70
2023-01-25T04:22:04.862Z,-0.60
2023-01-25T04:24:31.853Z,-0.60
2023-01-25T04:26:58.549Z,-0.60
2023-01-25T04:29:35.504Z,-0.70
2023-01-25T04:32:07.015Z,-0.70
2023-01-25T04:34:34.003Z,-0.70
2023-01-25T04:37:00.881Z,-0.70
2023-01-25T04:39:27.490Z,-0.80
2023-01-25T04:41:54.099Z,-0.80
2023-01-25T04:44:20.948Z,-0.80
2023-01-25T04:46:48.957Z,-0.80
2023-01-25T04:49:15.574Z,-0.80
2023-01-25T04:51:42.160Z,-0.80
2023-01-25T04:54:08.795Z,-0.80
2023-01-25T04:56:35.532Z,-0.80
2023-01-25T04:59:02.406Z,-0.80
2023-01-25T05:01:29.324Z,-0.90
2023-01-25T05:03:55.918Z,-0.90
2023-01-25T05:06:22.957Z,-0.90
2023-01-25T05:08:49.604Z,-0.90
2023-01-25T05:11:16.468Z,-0.90
2023-01-25T05:13:43.084Z,-0.90
2023-01-25T05:16:09.892Z,-0.90
2023-01-25T05:18:48.025Z,-0.80
2023-01-25T05:21:33.989Z,-0.80
2023-01-25T05:24:00.647Z,-0.80
2023-01-25T05:26:47.408Z,-0.80
2023-01-25T05:29:14.364Z,-0.80
2023-01-25T05:31:41.005Z,-0.70
2023-01-25T05:34:08.865Z,-0.70
2023-01-25T05:36:35.741Z,-0.80
2023-01-25T05:39:02.363Z,-0.80
2023-01-25T05:41:31.006Z,-0.80
2023-01-25T05:43:57.616Z,-0.80
2023-01-25T05:46:24.546Z,-0.80
2023-01-25T05:48:51.174Z,-0.70
2023-01-25T05:51:17.782Z,-0.80
2023-01-25T05:53:44.656Z,-0.70
2023-01-25T05:56:11.413Z,-0.70
2023-01-25T05:58:39.006Z,-0.80
2023-01-25T06:01:08.035Z,-0.80
2023-01-25T06:03:34.768Z,-0.70
2023-01-25T06:06:02.997Z,-0.70
2023-01-25T06:08:33.103Z,-0.80
2023-01-25T06:10:59.696Z,-0.80
2023-01-25T06:13:28.762Z,-0.80
2023-01-25T06:15:56.442Z,-0.80
2023-01-25T06:18:24.657Z,-0.90
2023-01-25T06:20:51.726Z,-0.90
2023-01-25T06:23:18.612Z,-0.90
2023-01-25T06:25:45.482Z,-0.90
2023-01-25T06:28:12.106Z,-0.90
2023-01-25T06:30:38.873Z,-0.90
2023-01-25T06:33:05.807Z,-0.90
2023-01-25T06:35:33.768Z,-1.00
2023-01-25T06:38:01.093Z,-1.00
2023-01-25T06:40:29.040Z,-1.00
2023-01-25T06:42:55.733Z,-0.90
2023-01-25T06:45:22.609Z,-1.00
2023-01-25T06:47:49.673Z,-0.90
2023-01-25T06:50:16.643Z,-0.90
2023-01-25T06:52:43.259Z,-0.90
2023-01-25T06:55:13.784Z,-0.90
2023-01-25T06:57:40.630Z,-0.90
2023-01-25T07:00:08.000Z,-0.90
2023-01-25T07:02:35.757Z,-0.80
2023-01-25T07:05:03.106Z,-0.90
2023-01-25T07:07:30.026Z,-0.90
2023-01-25T07:09:56.735Z,-0.90
2023-01-25T07:12:23.675Z,-0.80
2023-01-25T07:14:50.287Z,-0.80
2023-01-25T07:17:16.925Z,-0.80
2023-01-25T07:19:43.873Z,-0.80
2023-01-25T07:22:10.759Z,-0.80
2023-01-25T07:24:37.380Z,-0.80
2023-01-25T07:27:04.307Z,-0.80
2023-01-25T07:29:30.936Z,-0.80
2023-01-25T07:31:57.628Z,-0.80
2023-01-25T07:34:24.604Z,-0.80
2023-01-25T07:36:51.227Z,-0.70
2023-01-25T07:39:18.059Z,-0.70
2023-01-25T07:41:44.662Z,-0.70
2023-01-25T07:44:11.572Z,-0.70
2023-01-25T07:46:38.203Z,-0.70
2023-01-25T07:49:04.845Z,-0.70
2023-01-25T07:51:31.474Z,-0.80
2023-01-25T07:54:00.942Z,-0.80
2023-01-25T07:56:30.691Z,-0.70
2023-01-25T07:58:58.933Z,-0.70
2023-01-25T08:01:27.872Z,-0.70
2023-01-25T08:03:58.548Z,-0.60
2023-01-25T08:06:30.632Z,-0.60
2023-01-25T08:08:59.030Z,-0.70
2023-01-25T08:11:28.094Z,-0.70
2023-01-25T08:13:55.197Z,-0.70
2023-01-25T08:16:24.958Z,-0.70
2023-01-25T08:18:57.830Z,-0.60
2023-01-25T08:21:29.006Z,-0.50
2023-01-25T08:23:58.461Z,-0.40
2023-01-25T08:26:25.824Z,-0.30
2023-01-25T08:28:55.509Z,-0.40
2023-01-25T08:31:28.174Z,-0.40
2023-01-25T08:33:55.219Z,-0.40
2023-01-25T08:36:24.007Z,-0.30
2023-01-25T08:39:01.451Z,-0.30
2023-01-25T08:41:30.221Z,-0.30
2023-01-25T08:43:57.614Z,-0.30
2023-01-25T08:46:26.633Z,-0.40
2023-01-25T08:48:55.353Z,-0.40
2023-01-25T08:51:26.396Z,-0.30
2023-01-25T08:53:53.323Z,-0.30
2023-01-25T08:56:20.260Z,-0.20
2023-01-25T08:58:50.115Z,-0.10
2023-01-25T09:01:19.008Z,-0.10
2023-01-25T09:03:49.237Z,-0.20
2023-01-25T09:06:16.738Z,-0.30
2023-01-25T09:08:44.064Z,-0.30
2023-01-25T09:11:21.966Z,-0.40
2023-01-25T09:13:49.196Z,-0.30
2023-01-25T09:16:30.884Z,-0.20
2023-01-25T09:18:59.889Z,-0.30
2023-01-25T09:21:27.060Z,-0.40
2023-01-25T09:24:11.259Z,-0.40
2023-01-25T09:26:44.407Z,-0.30
2023-01-25T09:29:14.613Z,-0.30
2023-01-25T09:31:44.151Z,-0.30
2023-01-25T09:34:12.808Z,-0.30
2023-01-25T09:36:39.481Z,-0.30
2023-01-25T09:39:06.452Z,-0.20
2023-01-25T09:41:48.275Z,-0.20
2023-01-25T09:44:37.031Z,-0.10
2023-01-25T09:47:20.910Z,0.00
2023-01-25T09:53:49.299Z,0.20
2023-01-25T09:56:23.738Z,0.30
2023-01-25T09:58:57.430Z,0.30
2023-01-25T10:01:42.163Z,0.20
2023-01-25T10:04:28.885Z,0.10
2023-01-25T10:07:12.362Z,0.20
2023-01-25T10:10:03.459Z,0.20
2023-01-25T10:12:36.310Z,0.10
2023-01-25T10:15:21.148Z,0.10
2023-01-25T10:17:59.436Z,0.20
2023-01-25T10:20:47.106Z,0.20
2023-01-25T10:23:19.574Z,0.30
2023-01-25T10:25:54.497Z,0.50
2023-01-25T10:28:42.138Z,0.50
2023-01-25T10:31:19.807Z,0.60
2023-01-25T10:33:48.126Z,0.70
2023-01-25T10:36:32.191Z,0.80
2023-01-25T10:39:01.018Z,0.90
2023-01-25T10:41:40.758Z,0.90
2023-01-25T10:44:25.169Z,0.80
2023-01-25T10:47:04.205Z,0.60
2023-01-25T10:49:41.757Z,0.50
2023-01-25T10:52:20.386Z,0.60
2023-01-25T10:54:50.347Z,0.70
2023-01-25T10:57:22.474Z,0.70
2023-01-25T10:59:52.158Z,0.90
2023-01-25T11:02:40.247Z,1.10
2023-01-25T11:05:35.385Z,1.00
2023-01-25T11:08:25.849Z,1.10
2023-01-25T11:10:54.022Z,1.00
2023-01-25T11:13:24.611Z,1.20
2023-01-25T11:15:53.048Z,1.30
2023-01-25T11:18:24.227Z,1.50
2023-01-25T11:21:19.643Z,1.60
2023-01-25T11:24:11.523Z,1.40
2023-01-25T11:26:40.657Z,1.10
2023-01-25T11:29:15.277Z,1.00
2023-01-25T11:31:48.092Z,1.20
2023-01-25T11:34:18.138Z,1.20
2023-01-25T11:37:03.850Z,1.20
2023-01-25T11:39:44.525Z,1.30
2023-01-25T11:42:27.290Z,1.50
2023-01-25T11:45:17.076Z,1.50
2023-01-25T11:48:22.456Z,1.60
2023-01-25T11:51:22.093Z,1.60
2023-01-25T11:54:21.011Z,1.50
2023-01-25T11:57:10.538Z,1.40
2023-01-25T12:00:03.631Z,1.10
2023-01-25T12:02:43.020Z,1.20
2023-01-25T12:05:28.488Z,1.20
2023-01-25T12:08:10.261Z,1.50
2023-01-25T12:10:55.583Z,1.70
2023-01-25T12:13:53.407Z,2.00
2023-01-25T12:16:47.274Z,2.10
2023-01-25T12:19:31.439Z,1.80
2023-01-25T12:22:09.631Z,1.70
2023-01-25T12:25:00.913Z,1.90
2023-01-25T12:27:43.267Z,2.00
2023-01-25T12:30:27.037Z,2.20
2023-01-25T12:33:14.963Z,2.30
2023-01-25T12:35:54.855Z,2.30
2023-01-25T12:38:54.260Z,2.20
2023-01-25T12:41:29.928Z,1.90
2023-01-25T12:44:14.355Z,1.80
2023-01-25T12:47:11.019Z,1.70
2023-01-25T12:49:44.057Z,1.30
2023-01-25T12:52:42.841Z,1.20
2023-01-25T12:55:15.396Z,1.10
2023-01-25T12:57:51.076Z,1.20
2023-01-25T13:00:32.892Z,1.30
2023-01-25T13:03:29.176Z,1.30
2023-01-25T13:06:17.154Z,1.40
2023-01-25T13:09:24.747Z,1.50
2023-01-25T13:11:51.776Z,1.60
2023-01-25T13:14:18.526Z,1.70
2023-01-25T13:17:09.065Z,1.80
2023-01-25T13:19:36.721Z,2.00
2023-01-25T13:22:04.746Z,2.10
2023-01-25T13:24:33.467Z,2.20
2023-01-25T13:27:00.062Z,2.30
2023-01-25T13:29:32.270Z,2.30
2023-01-25T13:32:00.280Z,2.30
2023-01-25T13:34:35.993Z,2.00
2023-01-25T13:37:12.382Z,1.80
2023-01-25T13:39:38.956Z,1.70
2023-01-25T13:42:20.840Z,1.50
2023-01-25T13:44:53.403Z,1.50
2023-01-25T13:47:29.544Z,1.50
2023-01-25T13:50:13.391Z,1.30
2023-01-25T13:52:55.766Z,1.30
2023-01-25T13:55:22.422Z,1.00
2023-01-25T13:57:50.429Z,1.00
2023-01-25T14:00:19.020Z,1.00
2023-01-25T14:02:54.662Z,1.00
2023-01-25T14:05:24.456Z,1.20
2023-01-25T14:07:55.475Z,1.30
2023-01-25T14:10:26.257Z,1.30
2023-01-25T14:12:58.113Z,1.40
2023-01-25T14:15:30.859Z,1.30
2023-01-25T14:18:17.748Z,1.40
2023-01-25T14:20:46.299Z,1.30
2023-01-25T14:23:28.827Z,1.30
2023-01-25T14:25:59.104Z,1.30
2023-01-25T14:28:27.164Z,1.30
2023-01-25T14:30:58.928Z,1.20
2023-01-25T14:33:29.530Z,1.20
2023-01-25T14:36:24.091Z,1.10
2023-01-25T14:38:52.302Z,1.20
2023-01-25T14:41:22.271Z,1.10
2023-01-25T14:43:53.130Z,1.10
2023-01-25T14:46:22.055Z,1.00
2023-01-25T14:48:48.717Z,1.10
2023-01-25T14:51:30.407Z,1.00
2023-01-25T14:54:02.336Z,0.90
2023-01-25T14:56:44.484Z,0.60
2023-01-25T14:59:37.117Z,0.40
2023-01-25T15:02:30.523Z,0.20
2023-01-25T15:05:25.380Z,0.10
2023-01-25T15:07:55.153Z,0.00
2023-01-25T15:10:58.292Z,0.10
2023-01-25T15:13:26.951Z,0.10
2023-01-25T15:16:00.288Z,0.10
2023-01-25T15:18:49.299Z,0.10
2023-01-25T15:21:24.855Z,0.10
2023-01-25T15:23:53.210Z,0.20
2023-01-25T15:26:28.461Z,0.20
2023-01-25T15:28:58.189Z,0.10
2023-01-25T15:31:30.714Z,0.10
2023-01-25T15:33:58.766Z,0.10
2023-01-25T15:36:25.727Z,-0.10
2023-01-25T15:38:52.361Z,-0.30
2023-01-25T15:41:19.623Z,-0.30
2023-01-25T15:43:47.066Z,-0.30
2023-01-25T15:46:26.529Z,-0.40
2023-01-25T15:48:53.673Z,-0.50
2023-01-25T15:51:20.939Z,-0.60
2023-01-25T15:53:55.016Z,-0.60
2023-01-25T15:56:27.335Z,-0.50
2023-01-25T15:58:57.658Z,-0.60
2023-01-25T16:01:27.281Z,-0.60
2023-01-25T16:03:55.648Z,-0.70
2023-01-25T16:06:41.746Z,-0.70
2023-01-25T16:09:16.130Z,-0.70
2023-01-25T16:11:43.547Z,-0.70
2023-01-25T16:14:10.222Z,-0.70
2023-01-25T16:16:41.388Z,-0.80
2023-01-25T16:19:13.379Z,-0.80
2023-01-25T16:21:40.808Z,-0.80
2023-01-25T16:24:08.401Z,-0.80
2023-01-25T16:26:37.824Z,-0.80
2023-01-25T16:29:04.495Z,-0.80
2023-01-25T16:31:33.188Z,-0.80
2023-01-25T16:34:01.409Z,-0.80
2023-01-25T16:36:28.575Z,-0.70
2023-01-25T16:38:55.431Z,-0.70
2023-01-25T16:41:22.280Z,-0.70
2023-01-25T16:43:49.361Z,-0.70
2023-01-25T16:46:23.766Z,-0.70
2023-01-25T16:48:52.351Z,-0.70
2023-01-25T16:51:21.895Z,-0.70
2023-01-25T16:53:50.287Z,-0.70
2023-01-25T16:56:17.800Z,-0.80
2023-01-25T16:58:45.130Z,-0.80
2023-01-25T17:01:13.590Z,-0.80
2023-01-25T17:03:40.529Z,-0.80
2023-01-25T17:06:08.362Z,-0.80
2023-01-25T17:08:35.203Z,-0.70
2023-01-25T17:11:28.374Z,-0.70
2023-01-25T17:13:57.603Z,-0.70
2023-01-25T17:16:26.009Z,-0.70
2023-01-25T17:18:57.548Z,-0.70
2023-01-25T17:21:24.535Z,-0.70
2023-01-25T17:23:51.327Z,-0.70
2023-01-25T17:26:20.717Z,-0.70
2023-01-25T17:28:48.067Z,-0.80
2023-01-25T17:31:23.941Z,-0.70
2023-01-25T17:34:43.622Z,-0.80
2023-01-25T17:37:10.556Z,-0.80
2023-01-25T17:39:37.242Z,-0.80
2023-01-25T17:42:06.319Z,-0.80
2023-01-25T17:45:26.047Z,-0.80
2023-01-25T17:48:01.982Z,-0.80
2023-01-25T17:50:37.075Z,-0.80
2023-01-25T17:53:04.840Z,-0.80
2023-01-25T17:55:35.208Z,-0.80
2023-01-25T17:58:02.067Z,-0.80
2023-01-25T18:00:28.863Z,-1.00
2023-01-25T18:02:56.890Z,-1.10
2023-01-25T18:05:24.600Z,-1.10
2023-01-25T18:07:51.274Z,-1.10
2023-01-25T18:10:18.870Z,-1.20
2023-01-25T18:13:03.817Z,-1.10
2023-01-25T18:15:32.115Z,-1.10
2023-01-25T18:17:59.979Z,-1.10
2023-01-25T18:20:26.652Z,-1.10
2023-01-25T18:22:53.986Z,-1.10
2023-01-25T18:25:37.193Z,-1.10
2023-01-25T18:28:03.856Z,-1.20
2023-01-25T18:30:42.260Z,-1.20
2023-01-25T18:33:08.878Z,-1.10
2023-01-25T18:35:36.280Z,-1.10
2023-01-25T18:38:02.881Z,-1.00
2023-01-25T18:40:30.468Z,-1.00
2023-01-25T18:42:58.433Z,-1.00
2023-01-25T18:45:25.161Z,-1.00
2023-01-25T18:47:51.815Z,-1.00
2023-01-25T18:50:18.583Z,-1.00
2023-01-25T18:52:45.473Z,-1.00
2023-01-25T18:55:12.625Z,-1.00
2023-01-25T18:57:39.630Z,-1.00
2023-01-25T19:00:10.849Z,-1.00
2023-01-25T19:02:38.150Z,-1.00
2023-01-25T19:05:05.383Z,-1.00
2023-01-25T19:07:32.617Z,-0.90
2023-01-25T19:09:59.294Z,-1.00
2023-01-25T19:12:26.171Z,-0.90
2023-01-25T19:14:52.842Z,-0.90
2023-01-25T19:17:19.502Z,-0.90
2023-01-25T19:19:46.109Z,-0.90
2023-01-25T19:22:12.717Z,-0.90
2023-01-25T19:24:39.599Z,-0.90
2023-01-25T19:27:06.223Z,-0.90
2023-01-25T19:29:32.960Z,-1.00
2023-01-25T19:31:59.630Z,-1.00
2023-01-25T19:34:26.389Z,-1.10
2023-01-25T19:36:54.068Z,-1.10
2023-01-25T19:39:21.147Z,-1.10
2023-01-25T19:41:47.885Z,-1.00
2023-01-25T19:44:15.440Z,-1.00
2023-01-25T19:46:42.829Z,-1.00
2023-01-25T19:49:10.971Z,-1.00
2023-01-25T19:51:44.354Z,-1.00
2023-01-25T19:54:17.332Z,-1.20
2023-01-25T19:56:46.280Z,-1.20
2023-01-25T19:59:16.272Z,-1.30
2023-01-25T20:01:46.584Z,-1.20
2023-01-25T20:04:22.347Z,-1.20
2023-01-25T20:06:50.651Z,-1.20
2023-01-25T20:09:19.926Z,-1.20
2023-01-25T20:11:47.456Z,-1.20
2023-01-25T20:14:14.601Z,-1.10
2023-01-25T20:16:41.505Z,-1.10
2023-01-25T20:19:10.826Z,-1.20
2023-01-25T20:21:39.535Z,-1.20
2023-01-25T20:24:07.498Z,-1.20
2023-01-25T20:26:39.220Z,-1.20
2023-01-25T20:29:07.544Z,-1.20
2023-01-25T20:31:44.260Z,-1.20
2023-01-25T20:34:13.995Z,-1.20
2023-01-25T20:36:41.946Z,-1.20
2023-01-25T20:39:09.071Z,-1.20
2023-01-25T20:41:35.714Z,-1.30
2023-01-25T20:44:07.147Z,-1.30
2023-01-25T20:46:37.520Z,-1.40
2023-01-25T20:49:31.970Z,-1.40
2023-01-25T20:51:58.596Z,-1.40
2023-01-25T20:54:25.227Z,-1.40
2023-01-25T20:56:52.138Z,-1.50
2023-01-25T20:59:19.310Z,-1.40
2023-01-25T21:01:46.713Z,-1.40
2023-01-25T21:04:13.553Z,-1.50
2023-01-25T21:06:40.221Z,-1.50
2023-01-25T21:09:07.141Z,-1.50
2023-01-25T21:11:34.754Z,-1.50
2023-01-25T21:14:01.721Z,-1.50
2023-01-25T21:16:28.592Z,-1.50
2023-01-25T21:19:00.228Z,-1.40
2023-01-25T21:21:31.703Z,-1.40
2023-01-25T21:24:02.654Z,-1.40
2023-01-25T21:26:31.737Z,-1.40
2023-01-25T21:28:59.913Z,-1.30
2023-01-25T21:31:29.526Z,-1.40
2023-01-25T21:33:56.851Z,-1.40
2023-01-25T21:36:24.405Z,-1.40
2023-01-25T21:38:52.664Z,-1.40
2023-01-25T21:41:20.847Z,-1.50
2023-01-25T21:44:07.239Z,-1.50
2023-01-25T21:46:34.298Z,-1.40
2023-01-25T21:49:22.880Z,-1.40
2023-01-25T21:51:52.114Z,-1.50
2023-01-25T21:54:20.387Z,-1.50
2023-01-25T21:56:49.271Z,-1.50
2023-01-25T21:59:16.537Z,-1.60
2023-01-25T22:01:43.613Z,-1.60
2023-01-25T22:04:11.381Z,-1.60
2023-01-25T22:06:38.497Z,-1.60
2023-01-25T22:09:05.855Z,-1.50
2023-01-25T22:11:32.751Z,-1.50
2023-01-25T22:14:00.998Z,-1.50
2023-01-25T22:16:29.582Z,-1.50
2023-01-25T22:18:56.789Z,-1.50
2023-01-25T22:21:30.926Z,-1.50
2023-01-25T22:24:02.964Z,-1.50
2023-01-25T22:26:51.962Z,-1.50
2023-01-25T22:29:18.657Z,-1.60
2023-01-25T22:31:45.445Z,-1.60
2023-01-25T22:34:12.383Z,-1.60
2023-01-25T22:36:39.272Z,-1.60
2023-01-25T22:39:06.180Z,-1.60
2023-01-25T22:41:35.824Z,-1.60
2023-01-25T22:44:02.738Z,-1.60
2023-01-25T22:46:30.036Z,-1.50
2023-01-25T22:48:57.797Z,-1.40
2023-01-25T22:51:29.699Z,-1.50
2023-01-25T22:53:57.839Z,-1.40
2023-01-25T22:56:26.997Z,-1.40
2023-01-25T22:58:54.023Z,-1.40
2023-01-25T23:01:24.331Z,-1.40
2023-01-25T23:03:51.735Z,-1.50
2023-01-25T23:06:24.963Z,-1.40
2023-01-25T23:08:55.171Z,-1.50
2023-01-25T23:11:24.152Z,-1.40
2023-01-25T23:14:11.182Z,-1.40
2023-01-25T23:16:38.115Z,-1.40
2023-01-25T23:19:05.623Z,-1.40
2023-01-25T23:21:32.560Z,-1.40
2023-01-25T23:24:01.076Z,-1.40
2023-01-25T23:26:29.558Z,-1.40
2023-01-25T23:28:57.478Z,-1.40
2023-01-25T23:31:25.276Z,-1.30
2023-01-25T23:33:58.830Z,-1.30
2023-01-25T23:36:30.952Z,-1.30
2023-01-25T23:38:58.480Z,-1.30
2023-01-25T23:41:27.269Z,-1.30
2023-01-25T23:43:55.029Z,-1.30
2023-01-25T23:46:23.385Z,-1.30
2023-01-25T23:48:50.512Z,-1.30
2023-01-25T23:51:17.609Z,-1.30
2023-01-25T23:53:44.904Z,-1.30
2023-01-25T23:56:19.987Z,-1.30
2023-01-25T23:58:47.617Z,-1.20
